Time;durP1;ratioP1;P1;durP2;ratioP2;P2;SDS_P1;SDS_P2;PMS_P1;PMS_P2;Temp;Humidity;BMP_temperature;BMP_pressure;BME280_temperature;BME280_humidity;BME280_pressure;Samples;Min_cycle;Max_cycle;Signal;HPM_P1;HPM_P2
2022/12/20 00:02:13;;;;;;;;;;;2.10;99.90;;;;;;5047331;28;19944;-77
2022/12/20 00:04:39;;;;;;;;;;;2.10;99.90;;;;;;5046775;28;19936;-78
2022/12/20 00:07:06;;;;;;;;;;;2.10;99.90;;;;;;5047265;28;19931;-77
2022/12/20 00:09:34;;;;;;;;;;;2.10;99.90;;;;;;5047129;28;19936;-78
2022/12/20 00:12:00;;;;;;;;;;;2.10;99.90;;;;;;5048603;28;20440;-77
2022/12/20 00:14:27;;;;;;;;;;;2.20;99.90;;;;;;5048146;28;19936;-78
2022/12/20 00:16:53;;;;;;;;;;;2.10;99.90;;;;;;5046415;28;19929;-78
2022/12/20 00:19:20;;;;;;;;;;;2.20;99.90;;;;;;5046735;28;19928;-78
2022/12/20 00:21:46;;;;;;;;;;;2.10;99.90;;;;;;5046088;28;19936;-78
2022/12/20 00:24:13;;;;;;;;;;;2.10;99.90;;;;;;5049134;28;19939;-77
2022/12/20 00:26:41;;;;;;;;;;;2.10;99.90;;;;;;5045845;28;19937;-77
2022/12/20 00:29:08;;;;;;;;;;;2.20;99.90;;;;;;5048557;28;19928;-78
2022/12/20 00:31:34;;;;;;;;;;;2.20;99.90;;;;;;5046217;28;19929;-78
2022/12/20 00:34:01;;;;;;;;;;;2.10;99.90;;;;;;5059744;28;19925;-77
2022/12/20 00:36:29;;;;;;;;;;;2.20;99.90;;;;;;5060261;28;19929;-78
2022/12/20 00:38:56;;;;;;;;;;;2.10;99.90;;;;;;5060688;28;19932;-77
2022/12/20 00:41:24;;;;;;;;;;;2.20;99.90;;;;;;5059101;28;20169;-79
2022/12/20 00:43:52;;;;;;;;;;;2.10;99.90;;;;;;5051772;28;19929;-78
2022/12/20 00:46:19;;;;;;;;;;;2.20;99.90;;;;;;5049087;28;19929;-79
2022/12/20 00:48:46;;;;;;;;;;;2.10;99.90;;;;;;5050556;28;19929;-78
2022/12/20 00:51:14;;;;;;;;;;;2.20;99.90;;;;;;5048376;28;19929;-78
2022/12/20 00:53:41;;;;;;;;;;;2.20;99.90;;;;;;5048203;28;19932;-78
2022/12/20 00:56:08;;;;;;;;;;;2.10;99.90;;;;;;5046949;28;19936;-77
2022/12/20 00:58:35;;;;;;;;;;;2.10;99.90;;;;;;5050162;28;20418;-78
2022/12/20 01:01:04;;;;;;;;;;;2.10;99.90;;;;;;5048265;28;19928;-78
2022/12/20 01:03:30;;;;;;;;;;;2.10;99.90;;;;;;5038081;28;19928;-78
2022/12/20 01:05:58;;;;;;;;;;;2.20;99.90;;;;;;5043952;28;19929;-78
2022/12/20 01:08:25;;;;;;;;;;;2.20;99.90;;;;;;5041921;28;19936;-78
2022/12/20 01:10:58;;;;;;;;;;;2.20;99.90;;;;;;5045694;28;20003;-78
2022/12/20 01:13:24;;;;;;;;;;;2.20;99.90;;;;;;5046798;28;19928;-78
2022/12/20 01:15:51;;;;;;;;;;;2.10;99.90;;;;;;5046697;28;19933;-78
2022/12/20 01:18:19;;;;;;;;;;;2.20;99.90;;;;;;5041587;28;19944;-79
2022/12/20 01:20:45;;;;;;;;;;;2.20;99.90;;;;;;5043442;28;19940;-78
2022/12/20 01:23:12;;;;;;;;;;;2.20;99.90;;;;;;5049516;28;19928;-78
2022/12/20 01:25:39;;;;;;;;;;;2.20;99.90;;;;;;5044777;28;20539;-78
2022/12/20 01:28:05;;;;;;;;;;;2.20;99.90;;;;;;5043275;28;20197;-78
2022/12/20 01:30:32;;;;;;;;;;;2.20;99.90;;;;;;5044698;28;19933;-78
2022/12/20 01:32:59;;;;;;;;;;;2.20;99.90;;;;;;5043491;28;19929;-77
2022/12/20 01:35:26;;;;;;;;;;;2.20;99.90;;;;;;5045695;28;19952;-77
2022/12/20 01:37:53;;;;;;;;;;;2.20;99.90;;;;;;5045801;28;19956;-78
2022/12/20 01:40:19;;;;;;;;;;;2.20;99.90;;;;;;5043328;28;19940;-78
2022/12/20 01:42:46;;;;;;;;;;;2.20;99.90;;;;;;5050069;28;19944;-79
2022/12/20 01:45:18;;;;;;;;;;;2.20;99.90;;;;;;5046057;28;19928;-77
2022/12/20 01:47:45;;;;;;;;;;;2.20;99.90;;;;;;5049494;28;19929;-78
2022/12/20 01:50:11;;;;;;;;;;;2.20;99.90;;;;;;5046825;28;19964;-78
2022/12/20 01:52:40;;;;;;;;;;;2.20;99.90;;;;;;5055193;28;19928;-77
2022/12/20 01:55:09;;;;;;;;;;;2.20;99.90;;;;;;5048757;28;19940;-78
2022/12/20 01:57:38;;;;;;;;;;;2.20;99.90;;;;;;5050177;28;19932;-78
2022/12/20 02:00:07;;;;;;;;;;;2.20;99.90;;;;;;5052486;28;19928;-78
2022/12/20 02:02:33;;;;;;;;;;;2.20;99.90;;;;;;5049818;28;19934;-79
2022/12/20 02:05:00;;;;;;;;;;;2.20;99.90;;;;;;5051995;28;19929;-77
2022/12/20 02:07:28;;;;;;;;;;;2.20;99.90;;;;;;5050996;28;20188;-77
2022/12/20 02:09:57;;;;;;;;;;;2.20;99.90;;;;;;5047869;28;19944;-77
2022/12/20 02:12:24;;;;;;;;;;;2.20;99.90;;;;;;5050957;28;19929;-78
2022/12/20 02:14:59;;;;;;;;;;;2.20;99.90;;;;;;5058183;28;19941;-78
2022/12/20 02:17:31;;;;;;;;;;;2.20;99.90;;;;;;5054681;28;19928;-78
2022/12/20 02:20:07;;;;;;;;;;;2.20;99.90;;;;;;5058323;28;19937;-78
2022/12/20 02:22:44;;;;;;;;;;;2.20;99.90;;;;;;5059190;28;19954;-78
2022/12/20 02:25:31;;;;;;;;;;;2.20;99.90;;;;;;5054819;28;19928;-78
2022/12/20 02:28:00;;;;;;;;;;;2.20;99.90;;;;;;5057351;28;19944;-79
2022/12/20 02:30:32;;;;;;;;;;;2.20;99.90;;;;;;5056165;28;20390;-79
2022/12/20 02:33:01;;;;;;;;;;;2.20;99.90;;;;;;5051791;28;19925;-78
2022/12/20 02:35:30;;;;;;;;;;;2.20;99.90;;;;;;5051676;28;19936;-79
2022/12/20 02:37:57;;;;;;;;;;;2.20;99.90;;;;;;5052086;28;19968;-78
2022/12/20 02:40:25;;;;;;;;;;;2.20;99.90;;;;;;5048943;28;19936;-78
2022/12/20 02:42:53;;;;;;;;;;;2.20;99.90;;;;;;5049276;28;20401;-78
2022/12/20 02:45:21;;;;;;;;;;;2.20;99.90;;;;;;5048737;28;19929;-79
2022/12/20 02:47:52;;;;;;;;;;;2.20;99.90;;;;;;5049359;28;19925;-78
2022/12/20 02:50:20;;;;;;;;;;;2.30;99.90;;;;;;5051197;28;20312;-78
2022/12/20 02:52:47;;;;;;;;;;;2.30;99.90;;;;;;5046947;28;19936;-78
2022/12/20 02:55:14;;;;;;;;;;;2.30;99.90;;;;;;5049774;28;19940;-78
2022/12/20 02:57:44;;;;;;;;;;;2.30;99.90;;;;;;5048044;28;19928;-78
2022/12/20 03:00:13;;;;;;;;;;;2.30;99.90;;;;;;5048944;28;19929;-77
2022/12/20 03:05:26;;;;;;;;;;;2.30;99.90;;;;;;5049633;28;19985;-78
2022/12/20 03:07:53;;;;;;;;;;;2.30;99.90;;;;;;5050867;28;20028;-77
2022/12/20 03:10:20;;;;;;;;;;;2.30;99.90;;;;;;5045325;28;19933;-78
2022/12/20 03:12:47;;;;;;;;;;;2.30;99.90;;;;;;5050098;28;19933;-78
2022/12/20 03:15:13;;;;;;;;;;;2.30;99.90;;;;;;5050829;28;19929;-77
2022/12/20 03:17:40;;;;;;;;;;;2.30;99.90;;;;;;5049363;28;21766;-77
2022/12/20 03:20:07;;;;;;;;;;;2.30;99.90;;;;;;5047672;28;20143;-78
2022/12/20 03:22:35;;;;;;;;;;;2.30;99.90;;;;;;5048654;28;19933;-78
2022/12/20 03:25:02;;;;;;;;;;;2.30;99.90;;;;;;5047809;28;20548;-77
2022/12/20 03:27:28;;;;;;;;;;;2.30;99.90;;;;;;5048356;28;19935;-77
2022/12/20 03:29:55;;;;;;;;;;;2.40;99.90;;;;;;5049793;28;20727;-77
2022/12/20 03:32:22;;;;;;;;;;;2.30;99.90;;;;;;5046043;28;19952;-78
2022/12/20 03:34:48;;;;;;;;;;;2.40;99.90;;;;;;5048914;28;19940;-78
2022/12/20 03:37:15;;;;;;;;;;;2.40;99.90;;;;;;5049229;28;19935;-78
2022/12/20 03:39:43;;;;;;;;;;;2.40;99.90;;;;;;5042347;28;19933;-78
2022/12/20 03:42:09;;;;;;;;;;;2.40;99.90;;;;;;5048288;28;19936;-79
2022/12/20 03:44:36;;;;;;;;;;;2.40;99.90;;;;;;5049728;28;20004;-80
2022/12/20 03:47:03;;;;;;;;;;;2.40;99.90;;;;;;5045416;28;19929;-78
2022/12/20 03:49:29;;;;;;;;;;;2.40;99.90;;;;;;5044569;28;20413;-78
2022/12/20 03:51:56;;;;;;;;;;;2.30;99.90;;;;;;5050900;28;20377;-77
2022/12/20 03:54:23;;;;;;;;;;;2.40;99.90;;;;;;5046826;28;20278;-79
2022/12/20 03:56:50;;;;;;;;;;;2.40;99.90;;;;;;5050978;28;19952;-78
2022/12/20 03:59:17;;;;;;;;;;;2.40;99.90;;;;;;5053362;28;19939;-78
2022/12/20 04:01:44;;;;;;;;;;;2.40;99.90;;;;;;5045816;28;20030;-78
2022/12/20 04:04:11;;;;;;;;;;;2.40;99.90;;;;;;5049635;28;19936;-78
2022/12/20 04:06:37;;;;;;;;;;;2.40;99.90;;;;;;5048283;28;19940;-79
2022/12/20 04:09:04;;;;;;;;;;;2.40;99.90;;;;;;5048811;28;20289;-78
2022/12/20 04:11:30;;;;;;;;;;;2.40;99.90;;;;;;5047433;28;19982;-78
2022/12/20 04:13:58;;;;;;;;;;;2.40;99.90;;;;;;5051213;28;19932;-78
2022/12/20 04:16:25;;;;;;;;;;;2.40;99.90;;;;;;5050768;28;19928;-78
2022/12/20 04:18:52;;;;;;;;;;;2.40;99.90;;;;;;5050901;28;19936;-78
2022/12/20 04:21:23;;;;;;;;;;;2.40;99.90;;;;;;5050602;28;20350;-78
2022/12/20 04:23:50;;;;;;;;;;;2.40;99.90;;;;;;5045854;28;19935;-78
2022/12/20 04:26:16;;;;;;;;;;;2.40;99.90;;;;;;5050547;28;19929;-78
2022/12/20 04:28:43;;;;;;;;;;;2.40;99.90;;;;;;5050665;28;19936;-78
2022/12/20 04:31:11;;;;;;;;;;;2.40;99.90;;;;;;5050513;28;20345;-78
2022/12/20 04:33:38;;;;;;;;;;;2.50;99.90;;;;;;5052166;28;19932;-78
2022/12/20 04:36:05;;;;;;;;;;;2.40;99.90;;;;;;5053811;28;19925;-78
2022/12/20 04:38:31;;;;;;;;;;;2.40;99.90;;;;;;5049937;28;19936;-78
2022/12/20 04:40:58;;;;;;;;;;;2.40;99.90;;;;;;5046979;28;19951;-78
2022/12/20 04:43:25;;;;;;;;;;;2.40;99.90;;;;;;5043187;28;19936;-78
2022/12/20 04:45:55;;;;;;;;;;;2.40;99.90;;;;;;5043604;28;20592;-78
2022/12/20 04:48:25;;;;;;;;;;;2.40;99.90;;;;;;5041056;28;20028;-78
2022/12/20 04:50:52;;;;;;;;;;;2.40;99.90;;;;;;5041813;28;20434;-78
2022/12/20 04:56:03;;;;;;;;;;;2.40;99.90;;;;;;5038468;28;19931;-78
2022/12/20 04:58:30;;;;;;;;;;;2.40;99.90;;;;;;5040850;28;19929;-78
2022/12/20 05:00:57;;;;;;;;;;;2.40;99.90;;;;;;5039796;28;19941;-78
2022/12/20 05:03:25;;;;;;;;;;;2.40;99.90;;;;;;5039790;28;19936;-78
2022/12/20 05:05:52;;;;;;;;;;;2.40;99.90;;;;;;5038221;28;19935;-77
2022/12/20 05:08:19;;;;;;;;;;;2.40;99.90;;;;;;5042103;28;19933;-78
2022/12/20 05:10:47;;;;;;;;;;;2.40;99.90;;;;;;5040782;28;19944;-78
2022/12/20 05:13:13;;;;;;;;;;;2.40;99.90;;;;;;5042684;28;19935;-77
2022/12/20 05:15:40;;;;;;;;;;;2.50;99.90;;;;;;5042094;28;20356;-77
2022/12/20 05:18:07;;;;;;;;;;;2.40;99.90;;;;;;5040478;28;19989;-77
2022/12/20 05:20:35;;;;;;;;;;;2.50;99.90;;;;;;5041861;28;19928;-78
2022/12/20 05:28:30;;;;;;;;;;;2.50;99.90;;;;;;5046890;28;19936;-78
2022/12/20 05:30:56;;;;;;;;;;;2.50;99.90;;;;;;5042287;28;20336;-78
2022/12/20 05:33:23;;;;;;;;;;;2.50;99.90;;;;;;5043308;28;19933;-79
2022/12/20 05:35:51;;;;;;;;;;;2.50;99.90;;;;;;5044466;28;19940;-78
2022/12/20 05:38:18;;;;;;;;;;;2.50;99.90;;;;;;5047329;28;20664;-78
2022/12/20 05:40:47;;;;;;;;;;;2.50;99.90;;;;;;5046121;28;19929;-78
2022/12/20 05:43:14;;;;;;;;;;;2.50;99.90;;;;;;5044307;28;20566;-78
2022/12/20 05:45:40;;;;;;;;;;;2.50;99.90;;;;;;5045465;28;20002;-78
2022/12/20 05:48:07;;;;;;;;;;;2.50;99.90;;;;;;5042626;28;19940;-78
2022/12/20 05:50:34;;;;;;;;;;;2.50;99.90;;;;;;5044247;28;20339;-78
2022/12/20 05:53:02;;;;;;;;;;;2.50;99.90;;;;;;5046419;28;20727;-78
2022/12/20 05:55:29;;;;;;;;;;;2.50;99.90;;;;;;5040854;28;19928;-78
2022/12/20 05:57:56;;;;;;;;;;;2.50;99.90;;;;;;5047603;28;19968;-78
2022/12/20 06:00:23;;;;;;;;;;;2.50;99.90;;;;;;5048310;28;19929;-79
2022/12/20 06:02:49;;;;;;;;;;;2.50;99.90;;;;;;5039677;28;19939;-78
2022/12/20 06:05:16;;;;;;;;;;;2.50;99.90;;;;;;5048606;28;20023;-78
2022/12/20 06:07:42;;;;;;;;;;;2.50;99.90;;;;;;5048711;28;19990;-79
2022/12/20 06:10:11;;;;;;;;;;;2.50;99.90;;;;;;5047960;28;20007;-79
2022/12/20 06:12:38;;;;;;;;;;;2.50;99.90;;;;;;5047588;28;20628;-79
2022/12/20 06:15:05;;;;;;;;;;;2.50;99.90;;;;;;5047681;28;19929;-80
2022/12/20 06:17:31;;;;;;;;;;;2.50;99.90;;;;;;5045386;28;19935;-80
2022/12/20 06:19:58;;;;;;;;;;;2.50;99.90;;;;;;5041577;28;19937;-79
2022/12/20 06:22:25;;;;;;;;;;;2.50;99.90;;;;;;5048435;28;19977;-80
2022/12/20 06:24:51;;;;;;;;;;;2.50;99.90;;;;;;5047267;28;19958;-81
2022/12/20 06:27:21;;;;;;;;;;;2.50;99.90;;;;;;5042647;28;19933;-80
2022/12/20 06:29:50;;;;;;;;;;;2.50;99.90;;;;;;5035022;28;19972;-79
2022/12/20 06:32:17;;;;;;;;;;;2.50;99.90;;;;;;5036688;28;19951;-79
2022/12/20 06:34:44;;;;;;;;;;;2.50;99.90;;;;;;5040416;28;20090;-79
2022/12/20 06:37:10;;;;;;;;;;;2.50;99.90;;;;;;5043429;28;20408;-79
2022/12/20 06:39:37;;;;;;;;;;;2.50;99.90;;;;;;5044681;28;19999;-80
2022/12/20 06:42:04;;;;;;;;;;;2.50;99.90;;;;;;5047940;28;19956;-79
2022/12/20 06:44:32;;;;;;;;;;;2.50;99.90;;;;;;5047868;28;20467;-80
2022/12/20 06:46:58;;;;;;;;;;;2.60;99.90;;;;;;5043298;28;19929;-80
2022/12/20 06:49:25;;;;;;;;;;;2.60;99.90;;;;;;5046842;28;19936;-79
2022/12/20 06:51:51;;;;;;;;;;;2.60;99.90;;;;;;5044942;28;19929;-80
2022/12/20 06:54:18;;;;;;;;;;;2.60;99.90;;;;;;5047372;28;19939;-80
2022/12/20 06:56:45;;;;;;;;;;;2.60;99.90;;;;;;5045212;28;19928;-80
2022/12/20 06:59:11;;;;;;;;;;;2.60;99.90;;;;;;5047549;28;19929;-80
2022/12/20 07:01:39;;;;;;;;;;;2.60;99.90;;;;;;5040514;28;20446;-78
2022/12/20 07:04:05;;;;;;;;;;;2.60;99.90;;;;;;5047371;28;19928;-80
2022/12/20 07:06:32;;;;;;;;;;;2.60;99.90;;;;;;5042381;28;19929;-79
2022/12/20 07:08:59;;;;;;;;;;;2.60;99.90;;;;;;5045876;28;19936;-79
2022/12/20 07:11:25;;;;;;;;;;;2.60;99.90;;;;;;5044607;28;19952;-79
2022/12/20 07:13:55;;;;;;;;;;;2.60;99.90;;;;;;5045872;28;19941;-84
2022/12/20 07:16:21;;;;;;;;;;;2.60;99.90;;;;;;5041740;28;19924;-80
2022/12/20 07:18:51;;;;;;;;;;;2.60;99.90;;;;;;5044679;28;19933;-79
2022/12/20 07:21:18;;;;;;;;;;;2.60;99.90;;;;;;5044547;28;19933;-80
2022/12/20 07:23:45;;;;;;;;;;;2.60;99.90;;;;;;5045869;28;20399;-79
2022/12/20 07:26:12;;;;;;;;;;;2.70;99.90;;;;;;5045256;28;19936;-81
2022/12/20 07:28:39;;;;;;;;;;;2.70;99.90;;;;;;5039609;28;19935;-80
2022/12/20 07:31:06;;;;;;;;;;;2.70;99.90;;;;;;5047235;28;19931;-83
2022/12/20 07:33:32;;;;;;;;;;;2.70;99.90;;;;;;5044099;28;19939;-79
2022/12/20 07:36:04;;;;;;;;;;;2.70;99.90;;;;;;5048542;28;19928;-79
2022/12/20 07:38:31;;;;;;;;;;;2.70;99.90;;;;;;5045460;28;19940;-79
2022/12/20 07:40:57;;;;;;;;;;;2.70;99.90;;;;;;5043346;28;20594;-80
2022/12/20 07:43:24;;;;;;;;;;;2.70;99.90;;;;;;5043870;28;19933;-79
2022/12/20 07:45:53;;;;;;;;;;;2.70;99.90;;;;;;5044837;28;19932;-79
2022/12/20 07:48:20;;;;;;;;;;;2.70;99.90;;;;;;5046929;28;19933;-79
2022/12/20 07:50:46;;;;;;;;;;;2.70;99.90;;;;;;5046993;28;19961;-79
2022/12/20 07:53:14;;;;;;;;;;;2.70;99.90;;;;;;5043491;28;19929;-79
2022/12/20 07:55:41;;;;;;;;;;;2.70;99.90;;;;;;5051299;28;19936;-79
2022/12/20 07:58:09;;;;;;;;;;;2.70;99.90;;;;;;5045364;28;19932;-80
2022/12/20 08:00:37;;;;;;;;;;;2.70;99.90;;;;;;5049308;28;19940;-79
2022/12/20 08:03:05;;;;;;;;;;;2.70;99.90;;;;;;5042513;28;19929;-80
2022/12/20 08:05:32;;;;;;;;;;;2.70;99.90;;;;;;5040065;28;19939;-79
2022/12/20 08:07:59;;;;;;;;;;;2.70;99.90;;;;;;5040774;28;19933;-79
2022/12/20 08:10:29;;;;;;;;;;;2.70;99.90;;;;;;5043060;28;19936;-79
2022/12/20 08:12:56;;;;;;;;;;;2.70;99.90;;;;;;5039273;28;19932;-79
2022/12/20 08:15:22;;;;;;;;;;;2.80;99.90;;;;;;5042966;28;19936;-79
2022/12/20 08:17:49;;;;;;;;;;;2.80;99.90;;;;;;5041218;28;19929;-78
2022/12/20 08:20:16;;;;;;;;;;;2.80;99.90;;;;;;5040263;28;19932;-78
2022/12/20 08:22:42;;;;;;;;;;;2.80;99.90;;;;;;5046112;28;19939;-78
2022/12/20 08:25:10;;;;;;;;;;;2.80;99.90;;;;;;5042327;28;19929;-79
2022/12/20 08:27:38;;;;;;;;;;;2.80;99.90;;;;;;5041649;28;20012;-79
2022/12/20 08:30:06;;;;;;;;;;;2.80;99.90;;;;;;5043224;28;19929;-78
2022/12/20 08:32:32;;;;;;;;;;;2.80;99.90;;;;;;5042996;28;19932;-79
2022/12/20 08:34:59;;;;;;;;;;;2.80;99.90;;;;;;5041836;28;19933;-79
2022/12/20 08:37:26;;;;;;;;;;;2.80;99.90;;;;;;5040069;28;20458;-79
2022/12/20 08:39:52;;;;;;;;;;;2.80;99.90;;;;;;5040426;28;20677;-78
2022/12/20 08:42:19;;;;;;;;;;;2.90;99.90;;;;;;5035103;28;19933;-78
2022/12/20 08:44:47;;;;;;;;;;;2.90;99.90;;;;;;5040998;28;19929;-79
2022/12/20 08:47:14;;;;;;;;;;;2.80;99.90;;;;;;5043360;28;19936;-78
2022/12/20 08:49:40;;;;;;;;;;;2.90;99.90;;;;;;5044324;28;19929;-78
2022/12/20 08:52:07;;;;;;;;;;;2.90;99.90;;;;;;5040493;28;19929;-78
2022/12/20 08:54:33;;;;;;;;;;;2.90;99.90;;;;;;5038080;28;19936;-79
2022/12/20 08:57:00;;;;;;;;;;;2.90;99.90;;;;;;5045334;28;19928;-77
2022/12/20 08:59:27;;;;;;;;;;;2.90;99.90;;;;;;5038998;28;20389;-78
2022/12/20 09:01:55;;;;;;;;;;;2.90;99.90;;;;;;5041774;28;20377;-78
2022/12/20 09:04:21;;;;;;;;;;;2.90;99.90;;;;;;5048091;28;19975;-78
2022/12/20 09:06:48;;;;;;;;;;;2.90;99.90;;;;;;5048381;28;19932;-78
2022/12/20 09:09:15;;;;;;;;;;;2.90;99.90;;;;;;5047262;28;19933;-78
2022/12/20 09:11:41;;;;;;;;;;;3.00;99.90;;;;;;5030752;28;19933;-78
2022/12/20 09:14:08;;;;;;;;;;;3.00;99.90;;;;;;5036886;28;19933;-79
2022/12/20 09:16:35;;;;;;;;;;;3.00;99.90;;;;;;5032138;28;19936;-78
2022/12/20 09:19:04;;;;;;;;;;;3.00;99.90;;;;;;5044930;28;19940;-79
2022/12/20 09:21:30;;;;;;;;;;;3.00;99.90;;;;;;5048425;28;20043;-78
2022/12/20 09:23:57;;;;;;;;;;;3.00;99.90;;;;;;5048465;28;19933;-79
2022/12/20 09:26:24;;;;;;;;;;;3.00;99.90;;;;;;5048968;28;19940;-80
2022/12/20 09:28:50;;;;;;;;;;;3.00;99.90;;;;;;5046173;28;19931;-79
2022/12/20 09:31:18;;;;;;;;;;;3.00;99.90;;;;;;5044282;28;19936;-78
2022/12/20 09:33:45;;;;;;;;;;;3.00;99.90;;;;;;5047296;28;19960;-80
2022/12/20 09:36:13;;;;;;;;;;;3.10;99.90;;;;;;5050498;28;19928;-79
2022/12/20 09:38:40;;;;;;;;;;;3.10;99.90;;;;;;5048862;28;20587;-80
2022/12/20 09:41:07;;;;;;;;;;;3.10;99.90;;;;;;5046307;28;19929;-80
2022/12/20 09:43:34;;;;;;;;;;;3.10;99.90;;;;;;5042699;28;19929;-80
2022/12/20 09:46:02;;;;;;;;;;;3.10;99.90;;;;;;5044018;28;19929;-80
2022/12/20 09:48:30;;;;;;;;;;;3.10;99.90;;;;;;5042486;28;19935;-80
2022/12/20 09:51:01;;;;;;;;;;;3.10;99.90;;;;;;5046875;28;20007;-80
2022/12/20 09:53:34;;;;;;;;;;;3.10;99.90;;;;;;5048775;28;19928;-81
2022/12/20 09:56:05;;;;;;;;;;;3.10;99.90;;;;;;5045858;28;19933;-81
2022/12/20 09:58:37;;;;;;;;;;;3.10;99.90;;;;;;5047397;28;19935;-81
2022/12/20 10:01:12;;;;;;;;;;;3.20;99.90;;;;;;5045166;28;20246;-80
2022/12/20 10:03:39;;;;;;;;;;;3.20;99.90;;;;;;5048251;28;20289;-79
2022/12/20 10:06:08;;;;;;;;;;;3.20;99.90;;;;;;5045501;28;20623;-80
2022/12/20 10:08:44;;;;;;;;;;;3.20;99.90;;;;;;5046111;28;20412;-80
2022/12/20 10:11:14;;;;;;;;;;;3.20;99.90;;;;;;5043818;28;19941;-79
2022/12/20 10:13:54;;;;;;;;;;;3.20;99.90;;;;;;5047656;28;19944;-79
2022/12/20 10:16:33;;;;;;;;;;;3.20;99.90;;;;;;5044817;28;19928;-79
2022/12/20 10:19:04;;;;;;;;;;;3.20;99.90;;;;;;5045112;28;19972;-80
2022/12/20 10:21:36;;;;;;;;;;;3.30;99.90;;;;;;5045819;28;20301;-80
2022/12/20 10:24:10;;;;;;;;;;;3.30;99.90;;;;;;5046920;28;20573;-81
2022/12/20 10:26:36;;;;;;;;;;;3.30;99.90;;;;;;5045670;28;20270;-80
2022/12/20 10:29:03;;;;;;;;;;;3.30;99.90;;;;;;5042958;28;20332;-80
2022/12/20 10:31:29;;;;;;;;;;;3.30;99.90;;;;;;5046296;28;19933;-79
2022/12/20 10:33:56;;;;;;;;;;;3.30;99.90;;;;;;5048762;28;19929;-79
2022/12/20 10:36:25;;;;;;;;;;;3.40;99.90;;;;;;5051175;28;19928;-79
2022/12/20 10:38:52;;;;;;;;;;;3.40;99.90;;;;;;5048724;28;19929;-79
2022/12/20 10:41:22;;;;;;;;;;;3.40;99.90;;;;;;5047223;28;19937;-79
2022/12/20 10:43:51;;;;;;;;;;;3.40;99.90;;;;;;5048110;28;19935;-79
2022/12/20 10:46:17;;;;;;;;;;;3.40;99.90;;;;;;5044807;28;19936;-79
2022/12/20 10:48:45;;;;;;;;;;;3.40;99.90;;;;;;5047602;28;19939;-79
2022/12/20 10:51:15;;;;;;;;;;;3.40;99.90;;;;;;5045870;28;19928;-79
2022/12/20 10:53:53;;;;;;;;;;;3.40;99.90;;;;;;5045573;28;19929;-80
2022/12/20 10:56:22;;;;;;;;;;;3.40;99.90;;;;;;5041373;28;20641;-79
2022/12/20 10:58:53;;;;;;;;;;;3.40;99.90;;;;;;5050301;28;19943;-79
2022/12/20 11:01:20;;;;;;;;;;;3.50;99.90;;;;;;5044664;28;19932;-79
2022/12/20 11:03:57;;;;;;;;;;;3.50;99.90;;;;;;5048684;28;19928;-79
2022/12/20 11:06:25;;;;;;;;;;;3.50;99.90;;;;;;5045870;28;19940;-79
2022/12/20 11:08:52;;;;;;;;;;;3.50;99.90;;;;;;5038578;28;19929;-80
2022/12/20 11:11:20;;;;;;;;;;;3.50;99.90;;;;;;5041039;28;20448;-81
2022/12/20 11:13:49;;;;;;;;;;;3.50;99.90;;;;;;5046090;28;19940;-78
2022/12/20 11:16:34;;;;;;;;;;;3.50;99.90;;;;;;5039597;28;19998;-78
2022/12/20 11:19:06;;;;;;;;;;;3.50;99.90;;;;;;5041655;28;20386;-78
2022/12/20 11:21:35;;;;;;;;;;;3.60;99.90;;;;;;5041827;28;19936;-78
2022/12/20 11:24:06;;;;;;;;;;;3.50;99.90;;;;;;5043462;28;20716;-78
2022/12/20 11:26:41;;;;;;;;;;;3.50;99.90;;;;;;5041176;28;19936;-77
2022/12/20 11:29:16;;;;;;;;;;;3.60;99.90;;;;;;5041744;28;19928;-78
2022/12/20 11:31:48;;;;;;;;;;;3.60;99.90;;;;;;5040937;28;19929;-78
2022/12/20 11:34:19;;;;;;;;;;;3.60;99.90;;;;;;5044072;28;19928;-78
2022/12/20 11:36:54;;;;;;;;;;;3.60;99.90;;;;;;5041900;28;19937;-78
2022/12/20 11:39:25;;;;;;;;;;;3.60;99.90;;;;;;5043654;28;19932;-78
2022/12/20 11:41:56;;;;;;;;;;;3.60;99.90;;;;;;5041910;28;19937;-78
2022/12/20 11:44:29;;;;;;;;;;;3.60;99.90;;;;;;5042656;28;19932;-78
2022/12/20 11:47:03;;;;;;;;;;;3.70;99.90;;;;;;5040361;28;19960;-78
2022/12/20 11:49:51;;;;;;;;;;;3.70;99.90;;;;;;5043977;28;20807;-78
2022/12/20 11:52:21;;;;;;;;;;;3.70;99.90;;;;;;5040678;28;19932;-78
2022/12/20 11:54:49;;;;;;;;;;;3.80;99.90;;;;;;5041776;28;19929;-78
2022/12/20 11:57:18;;;;;;;;;;;3.70;99.90;;;;;;5042820;28;20046;-78
2022/12/20 11:59:48;;;;;;;;;;;3.70;99.90;;;;;;5042142;28;19929;-79
2022/12/20 12:02:18;;;;;;;;;;;3.70;99.90;;;;;;5040068;28;19928;-78
2022/12/20 12:04:46;;;;;;;;;;;3.80;99.90;;;;;;5044261;28;19936;-78
2022/12/20 12:07:15;;;;;;;;;;;3.80;99.90;;;;;;5044108;28;19943;-78
2022/12/20 12:09:44;;;;;;;;;;;3.80;99.90;;;;;;5045241;28;19925;-78
2022/12/20 12:12:15;;;;;;;;;;;3.80;99.90;;;;;;5045050;28;19933;-78
2022/12/20 12:14:46;;;;;;;;;;;3.90;99.90;;;;;;5042634;28;19928;-78
2022/12/20 12:17:17;;;;;;;;;;;3.80;99.90;;;;;;5042344;28;19929;-78
2022/12/20 12:19:46;;;;;;;;;;;3.80;99.90;;;;;;5044217;28;19936;-78
2022/12/20 12:22:15;;;;;;;;;;;3.90;99.90;;;;;;5043992;28;19951;-79
2022/12/20 12:24:44;;;;;;;;;;;3.90;99.90;;;;;;5044012;28;20582;-78
2022/12/20 12:27:15;;;;;;;;;;;3.90;99.90;;;;;;5045059;28;20392;-78
2022/12/20 12:29:41;;;;;;;;;;;3.90;99.90;;;;;;5045797;28;19973;-78
2022/12/20 12:32:10;;;;;;;;;;;3.90;99.90;;;;;;5042395;28;19932;-78
2022/12/20 12:34:47;;;;;;;;;;;3.90;99.90;;;;;;5041907;28;20446;-77
2022/12/20 12:37:27;;;;;;;;;;;3.90;99.90;;;;;;5039052;28;20666;-77
2022/12/20 12:40:03;;;;;;;;;;;4.00;99.90;;;;;;5040245;28;19942;-77
2022/12/20 12:42:41;;;;;;;;;;;4.00;99.90;;;;;;5039157;28;19936;-78
2022/12/20 12:45:12;;;;;;;;;;;4.00;99.90;;;;;;5038152;28;19932;-77
2022/12/20 12:47:44;;;;;;;;;;;4.00;99.90;;;;;;5036604;28;19929;-77
2022/12/20 12:50:19;;;;;;;;;;;4.00;99.90;;;;;;5033189;28;20298;-76
2022/12/20 12:52:48;;;;;;;;;;;4.00;99.90;;;;;;5044017;28;19929;-78
2022/12/20 12:55:33;;;;;;;;;;;4.00;99.90;;;;;;5041942;28;19936;-78
2022/12/20 12:58:12;;;;;;;;;;;4.00;99.90;;;;;;5042885;28;19933;-78
2022/12/20 13:00:49;;;;;;;;;;;4.10;99.90;;;;;;5044394;28;19939;-77
2022/12/20 13:03:17;;;;;;;;;;;4.10;99.90;;;;;;5047059;28;19939;-78
2022/12/20 13:05:45;;;;;;;;;;;4.10;99.90;;;;;;5055922;28;19936;-78
2022/12/20 13:08:15;;;;;;;;;;;4.10;99.90;;;;;;5048460;28;20409;-79
2022/12/20 13:11:08;;;;;;;;;;;4.10;99.90;;;;;;5044101;28;19940;-79
2022/12/20 13:13:35;;;;;;;;;;;4.10;99.90;;;;;;5044838;28;20416;-78
2022/12/20 13:16:09;;;;;;;;;;;4.20;99.90;;;;;;5043647;28;20015;-79
2022/12/20 13:18:36;;;;;;;;;;;4.20;99.90;;;;;;5043750;28;20410;-78
2022/12/20 13:21:21;;;;;;;;;;;4.20;99.90;;;;;;5040154;28;20730;-78
2022/12/20 13:24:09;;;;;;;;;;;4.20;99.90;;;;;;5042430;28;19933;-78
2022/12/20 13:26:49;;;;;;;;;;;4.20;99.90;;;;;;5040788;28;20474;-78
2022/12/20 13:29:23;;;;;;;;;;;4.20;99.90;;;;;;5042096;28;19928;-78
2022/12/20 13:31:50;;;;;;;;;;;4.20;99.90;;;;;;5041481;28;19967;-79
2022/12/20 13:34:31;;;;;;;;;;;4.20;99.90;;;;;;5040440;28;19941;-78
2022/12/20 13:36:58;;;;;;;;;;;4.20;99.90;;;;;;5040495;28;19929;-79
2022/12/20 13:39:33;;;;;;;;;;;4.20;99.90;;;;;;5042632;28;19928;-79
2022/12/20 13:42:13;;;;;;;;;;;4.20;99.90;;;;;;5038784;28;20043;-78
2022/12/20 13:44:41;;;;;;;;;;;4.20;99.90;;;;;;5043393;28;19929;-78
2022/12/20 13:47:16;;;;;;;;;;;4.30;99.90;;;;;;5043126;28;20012;-79
2022/12/20 13:49:43;;;;;;;;;;;4.30;99.90;;;;;;5046078;28;20002;-78
2022/12/20 13:52:18;;;;;;;;;;;4.30;99.90;;;;;;5045106;28;19928;-79
2022/12/20 13:54:46;;;;;;;;;;;4.30;99.90;;;;;;5042251;28;20327;-78
2022/12/20 13:57:16;;;;;;;;;;;4.30;99.90;;;;;;5045382;28;20340;-78
2022/12/20 13:59:45;;;;;;;;;;;4.30;99.90;;;;;;5038798;28;19937;-77
2022/12/20 14:02:17;;;;;;;;;;;4.30;99.90;;;;;;5042945;28;20778;-78
2022/12/20 14:04:45;;;;;;;;;;;4.30;99.90;;;;;;5045781;28;20047;-78
2022/12/20 14:07:14;;;;;;;;;;;4.30;99.90;;;;;;5044601;28;19998;-77
2022/12/20 14:09:43;;;;;;;;;;;4.30;99.90;;;;;;5041918;28;20711;-78
2022/12/20 14:12:12;;;;;;;;;;;4.30;99.90;;;;;;5044278;28;19940;-77
2022/12/20 14:14:42;;;;;;;;;;;4.30;99.90;;;;;;5043400;28;19987;-78
2022/12/20 14:17:15;;;;;;;;;;;4.30;99.90;;;;;;5042124;28;20361;-78
2022/12/20 14:19:42;;;;;;;;;;;4.30;99.90;;;;;;5042309;28;19932;-78
2022/12/20 14:22:09;;;;;;;;;;;4.30;99.90;;;;;;5045185;28;19932;-78
2022/12/20 14:24:36;;;;;;;;;;;4.30;99.90;;;;;;5043055;28;19952;-78
2022/12/20 14:27:03;;;;;;;;;;;4.30;99.90;;;;;;5044584;28;19933;-77
2022/12/20 14:29:31;;;;;;;;;;;4.30;99.90;;;;;;5040056;28;19929;-78
2022/12/20 14:31:59;;;;;;;;;;;4.40;99.90;;;;;;5041457;28;19932;-80
2022/12/20 14:34:27;;;;;;;;;;;4.40;99.90;;;;;;5045540;28;20461;-78
2022/12/20 14:37:13;;;;;;;;;;;4.30;99.90;;;;;;5043079;28;19933;-78
2022/12/20 14:39:53;;;;;;;;;;;4.40;99.90;;;;;;5045022;28;19929;-78
2022/12/20 14:42:20;;;;;;;;;;;4.40;99.90;;;;;;5044747;28;19932;-78
2022/12/20 14:44:47;;;;;;;;;;;4.30;99.90;;;;;;5044114;28;19936;-77
2022/12/20 14:47:15;;;;;;;;;;;4.40;99.90;;;;;;5043424;28;19929;-78
2022/12/20 14:49:47;;;;;;;;;;;4.40;99.90;;;;;;5040656;28;19988;-78
2022/12/20 14:52:15;;;;;;;;;;;4.40;99.90;;;;;;5038469;28;20475;-77